sensor_id;sensor_type;location;lat;lon;timestamp;temperature;humidity
37300;DHT22;23184;51.902;12.836;2023-07-09T00:01:45;20.10;99.90
37300;DHT22;23184;51.902;12.836;2023-07-09T00:04:11;20.00;99.90
37300;DHT22;23184;51.902;12.836;2023-07-09T00:06:37;19.70;99.90
37300;DHT22;23184;51.902;12.836;2023-07-09T00:09:03;19.50;99.90
37300;DHT22;23184;51.902;12.836;2023-07-09T00:11:30;19.30;99.90
37300;DHT22;23184;51.902;12.836;2023-07-09T00:13:55;19.20;99.90
37300;DHT22;23184;51.902;12.836;2023-07-09T00:16:24;19.10;99.90
37300;DHT22;23184;51.902;12.836;2023-07-09T00:18:50;19.10;99.90
37300;DHT22;23184;51.902;12.836;2023-07-09T00:21:21;19.10;99.90
37300;DHT22;23184;51.902;12.836;2023-07-09T00:23:47;19.20;99.90
37300;DHT22;23184;51.902;12.836;2023-07-09T00:26:17;19.30;99.90
37300;DHT22;23184;51.902;12.836;2023-07-09T00:28:43;19.30;99.90
37300;DHT22;23184;51.902;12.836;2023-07-09T00:31:12;19.40;99.90
37300;DHT22;23184;51.902;12.836;2023-07-09T00:33:39;19.40;99.90
37300;DHT22;23184;51.902;12.836;2023-07-09T00:36:13;19.40;99.90
37300;DHT22;23184;51.902;12.836;2023-07-09T00:38:39;19.50;99.90
37300;DHT22;23184;51.902;12.836;2023-07-09T00:41:15;19.50;99.90
37300;DHT22;23184;51.902;12.836;2023-07-09T00:43:43;19.60;99.90
37300;DHT22;23184;51.902;12.836;2023-07-09T00:48:55;19.60;99.90
37300;DHT22;23184;51.902;12.836;2023-07-09T00:51:23;19.60;99.90
37300;DHT22;23184;51.902;12.836;2023-07-09T00:53:52;19.60;99.90
37300;DHT22;23184;51.902;12.836;2023-07-09T00:56:29;19.60;99.90
37300;DHT22;23184;51.902;12.836;2023-07-09T00:58:58;19.50;99.90
37300;DHT22;23184;51.902;12.836;2023-07-09T01:01:25;19.40;99.90
37300;DHT22;23184;51.902;12.836;2023-07-09T01:03:53;19.30;99.90
37300;DHT22;23184;51.902;12.836;2023-07-09T01:06:28;19.10;99.90
37300;DHT22;23184;51.902;12.836;2023-07-09T01:08:58;18.90;99.90
37300;DHT22;23184;51.902;12.836;2023-07-09T01:11:24;18.70;99.90
37300;DHT22;23184;51.902;12.836;2023-07-09T01:13:55;18.60;99.90
37300;DHT22;23184;51.902;12.836;2023-07-09T01:16:24;18.50;99.90
37300;DHT22;23184;51.902;12.836;2023-07-09T01:18:51;18.40;99.90
37300;DHT22;23184;51.902;12.836;2023-07-09T01:21:17;18.20;99.90
37300;DHT22;23184;51.902;12.836;2023-07-09T01:23:43;18.20;99.90
37300;DHT22;23184;51.902;12.836;2023-07-09T01:26:13;18.10;99.90
37300;DHT22;23184;51.902;12.836;2023-07-09T01:28:40;18.00;99.90
37300;DHT22;23184;51.902;12.836;2023-07-09T01:31:09;18.00;99.90
37300;DHT22;23184;51.902;12.836;2023-07-09T01:33:35;18.00;99.90
37300;DHT22;23184;51.902;12.836;2023-07-09T01:36:01;18.00;99.90
37300;DHT22;23184;51.902;12.836;2023-07-09T01:38:27;18.00;99.90
37300;DHT22;23184;51.902;12.836;2023-07-09T01:40:59;18.00;99.90
37300;DHT22;23184;51.902;12.836;2023-07-09T01:43:25;17.80;99.90
37300;DHT22;23184;51.902;12.836;2023-07-09T01:45:51;17.60;99.90
37300;DHT22;23184;51.902;12.836;2023-07-09T01:48:18;17.60;99.90
37300;DHT22;23184;51.902;12.836;2023-07-09T01:50:46;17.60;99.90
37300;DHT22;23184;51.902;12.836;2023-07-09T01:53:15;17.50;99.90
37300;DHT22;23184;51.902;12.836;2023-07-09T01:55:42;17.50;99.90
37300;DHT22;23184;51.902;12.836;2023-07-09T01:58:08;17.50;99.90
37300;DHT22;23184;51.902;12.836;2023-07-09T02:00:34;17.50;99.90
37300;DHT22;23184;51.902;12.836;2023-07-09T02:03:03;17.60;99.90
37300;DHT22;23184;51.902;12.836;2023-07-09T02:05:31;17.60;99.90
37300;DHT22;23184;51.902;12.836;2023-07-09T02:07:58;17.60;99.90
37300;DHT22;23184;51.902;12.836;2023-07-09T02:10:24;17.60;99.90
37300;DHT22;23184;51.902;12.836;2023-07-09T02:12:50;17.60;99.90
37300;DHT22;23184;51.902;12.836;2023-07-09T02:15:16;17.70;99.90
37300;DHT22;23184;51.902;12.836;2023-07-09T02:17:42;17.60;99.90
37300;DHT22;23184;51.902;12.836;2023-07-09T02:20:09;17.60;99.90
37300;DHT22;23184;51.902;12.836;2023-07-09T02:22:36;17.50;99.90
37300;DHT22;23184;51.902;12.836;2023-07-09T02:25:02;17.60;99.90
37300;DHT22;23184;51.902;12.836;2023-07-09T02:27:28;17.60;99.90
37300;DHT22;23184;51.902;12.836;2023-07-09T02:29:54;17.60;99.90
37300;DHT22;23184;51.902;12.836;2023-07-09T02:32:24;17.60;99.90
37300;DHT22;23184;51.902;12.836;2023-07-09T02:34:54;17.60;99.90
37300;DHT22;23184;51.902;12.836;2023-07-09T02:37:25;17.60;99.90
37300;DHT22;23184;51.902;12.836;2023-07-09T02:39:51;17.60;99.90
37300;DHT22;23184;51.902;12.836;2023-07-09T02:42:20;17.60;99.90
37300;DHT22;23184;51.902;12.836;2023-07-09T02:44:45;17.40;99.90
37300;DHT22;23184;51.902;12.836;2023-07-09T02:47:12;17.40;99.90
37300;DHT22;23184;51.902;12.836;2023-07-09T02:49:38;17.30;99.90
37300;DHT22;23184;51.902;12.836;2023-07-09T02:52:04;17.20;99.90
37300;DHT22;23184;51.902;12.836;2023-07-09T02:54:30;17.10;99.90
37300;DHT22;23184;51.902;12.836;2023-07-09T02:56:55;17.00;99.90
37300;DHT22;23184;51.902;12.836;2023-07-09T02:59:21;17.00;99.90
37300;DHT22;23184;51.902;12.836;2023-07-09T03:01:47;16.90;99.90
37300;DHT22;23184;51.902;12.836;2023-07-09T03:04:16;16.90;99.90
37300;DHT22;23184;51.902;12.836;2023-07-09T03:06:41;16.90;99.90
37300;DHT22;23184;51.902;12.836;2023-07-09T03:09:07;16.90;99.90
37300;DHT22;23184;51.902;12.836;2023-07-09T03:11:34;16.90;99.90
37300;DHT22;23184;51.902;12.836;2023-07-09T03:14:01;16.90;99.90
37300;DHT22;23184;51.902;12.836;2023-07-09T03:16:29;16.90;99.90
37300;DHT22;23184;51.902;12.836;2023-07-09T03:18:56;16.90;99.90
37300;DHT22;23184;51.902;12.836;2023-07-09T03:21:23;16.90;99.90
37300;DHT22;23184;51.902;12.836;2023-07-09T03:23:50;16.90;99.90
37300;DHT22;23184;51.902;12.836;2023-07-09T03:26:15;17.00;99.90
37300;DHT22;23184;51.902;12.836;2023-07-09T03:28:41;17.00;99.90
37300;DHT22;23184;51.902;12.836;2023-07-09T03:31:07;17.00;99.90
37300;DHT22;23184;51.902;12.836;2023-07-09T03:33:32;17.10;99.90
37300;DHT22;23184;51.902;12.836;2023-07-09T03:35:58;17.10;99.90
37300;DHT22;23184;51.902;12.836;2023-07-09T03:38:23;17.10;99.90
37300;DHT22;23184;51.902;12.836;2023-07-09T03:40:51;17.10;99.90
37300;DHT22;23184;51.902;12.836;2023-07-09T03:43:17;17.10;99.90
37300;DHT22;23184;51.902;12.836;2023-07-09T03:45:44;17.20;99.90
37300;DHT22;23184;51.902;12.836;2023-07-09T03:48:09;17.20;99.90
37300;DHT22;23184;51.902;12.836;2023-07-09T03:50:35;17.30;99.90
37300;DHT22;23184;51.902;12.836;2023-07-09T03:53:00;17.20;99.90
37300;DHT22;23184;51.902;12.836;2023-07-09T03:55:26;17.10;99.90
37300;DHT22;23184;51.902;12.836;2023-07-09T03:57:56;17.20;99.90
37300;DHT22;23184;51.902;12.836;2023-07-09T04:00:22;17.20;99.90
37300;DHT22;23184;51.902;12.836;2023-07-09T04:02:48;17.30;99.90
37300;DHT22;23184;51.902;12.836;2023-07-09T04:05:14;17.40;99.90
37300;DHT22;23184;51.902;12.836;2023-07-09T04:07:39;17.50;99.90
37300;DHT22;23184;51.902;12.836;2023-07-09T04:10:06;17.70;99.90
37300;DHT22;23184;51.902;12.836;2023-07-09T04:12:32;17.90;99.90
37300;DHT22;23184;51.902;12.836;2023-07-09T04:14:57;18.00;99.90
37300;DHT22;23184;51.902;12.836;2023-07-09T04:17:23;18.10;99.90
37300;DHT22;23184;51.902;12.836;2023-07-09T04:19:49;18.30;99.90
37300;DHT22;23184;51.902;12.836;2023-07-09T04:22:15;18.50;99.90
37300;DHT22;23184;51.902;12.836;2023-07-09T04:24:41;18.60;99.90
37300;DHT22;23184;51.902;12.836;2023-07-09T04:27:06;18.80;99.90
37300;DHT22;23184;51.902;12.836;2023-07-09T04:29:32;18.90;99.90
37300;DHT22;23184;51.902;12.836;2023-07-09T04:32:04;19.00;99.90
37300;DHT22;23184;51.902;12.836;2023-07-09T04:34:30;19.10;99.90
37300;DHT22;23184;51.902;12.836;2023-07-09T04:36:55;19.20;99.90
37300;DHT22;23184;51.902;12.836;2023-07-09T04:39:21;19.40;99.90
37300;DHT22;23184;51.902;12.836;2023-07-09T04:41:47;19.50;99.90
37300;DHT22;23184;51.902;12.836;2023-07-09T04:44:12;19.60;99.90
37300;DHT22;23184;51.902;12.836;2023-07-09T04:46:38;19.70;99.90
37300;DHT22;23184;51.902;12.836;2023-07-09T04:49:04;19.80;99.90
37300;DHT22;23184;51.902;12.836;2023-07-09T04:51:29;19.90;99.90
37300;DHT22;23184;51.902;12.836;2023-07-09T04:53:55;20.00;99.90
37300;DHT22;23184;51.902;12.836;2023-07-09T04:56:20;20.10;99.90
37300;DHT22;23184;51.902;12.836;2023-07-09T04:58:46;20.20;99.90
37300;DHT22;23184;51.902;12.836;2023-07-09T05:01:11;20.30;99.90
37300;DHT22;23184;51.902;12.836;2023-07-09T05:03:37;20.30;99.90
37300;DHT22;23184;51.902;12.836;2023-07-09T05:06:04;20.40;99.90
37300;DHT22;23184;51.902;12.836;2023-07-09T05:08:29;20.50;99.90
37300;DHT22;23184;51.902;12.836;2023-07-09T05:10:57;20.50;99.90
37300;DHT22;23184;51.902;12.836;2023-07-09T05:13:24;20.60;99.90
37300;DHT22;23184;51.902;12.836;2023-07-09T05:15:49;20.70;99.90
37300;DHT22;23184;51.902;12.836;2023-07-09T05:18:16;20.70;99.90
37300;DHT22;23184;51.902;12.836;2023-07-09T05:20:41;20.80;99.90
37300;DHT22;23184;51.902;12.836;2023-07-09T05:23:09;20.90;99.90
37300;DHT22;23184;51.902;12.836;2023-07-09T05:25:35;21.00;99.90
37300;DHT22;23184;51.902;12.836;2023-07-09T05:28:00;21.10;99.90
37300;DHT22;23184;51.902;12.836;2023-07-09T05:30:26;21.20;99.90
37300;DHT22;23184;51.902;12.836;2023-07-09T05:32:52;21.20;99.90
37300;DHT22;23184;51.902;12.836;2023-07-09T05:35:19;21.30;99.90
37300;DHT22;23184;51.902;12.836;2023-07-09T05:37:44;21.40;99.90
37300;DHT22;23184;51.902;12.836;2023-07-09T05:40:10;21.50;99.90
37300;DHT22;23184;51.902;12.836;2023-07-09T05:42:35;21.60;99.90
37300;DHT22;23184;51.902;12.836;2023-07-09T05:45:01;21.60;99.90
37300;DHT22;23184;51.902;12.836;2023-07-09T05:47:27;21.70;99.90
37300;DHT22;23184;51.902;12.836;2023-07-09T05:49:52;21.80;99.90
37300;DHT22;23184;51.902;12.836;2023-07-09T05:52:20;21.80;99.90
37300;DHT22;23184;51.902;12.836;2023-07-09T05:54:50;21.90;99.90
37300;DHT22;23184;51.902;12.836;2023-07-09T05:57:16;22.00;99.90
37300;DHT22;23184;51.902;12.836;2023-07-09T05:59:42;22.00;99.90
37300;DHT22;23184;51.902;12.836;2023-07-09T06:02:12;22.10;99.90
37300;DHT22;23184;51.902;12.836;2023-07-09T06:04:37;22.20;99.90
37300;DHT22;23184;51.902;12.836;2023-07-09T06:07:03;22.20;99.90
37300;DHT22;23184;51.902;12.836;2023-07-09T06:09:29;22.30;99.90
37300;DHT22;23184;51.902;12.836;2023-07-09T06:11:55;22.40;99.90
37300;DHT22;23184;51.902;12.836;2023-07-09T06:14:21;22.50;99.90
37300;DHT22;23184;51.902;12.836;2023-07-09T06:16:46;22.70;99.90
37300;DHT22;23184;51.902;12.836;2023-07-09T06:19:11;22.80;99.90
37300;DHT22;23184;51.902;12.836;2023-07-09T06:21:38;22.90;99.90
37300;DHT22;23184;51.902;12.836;2023-07-09T06:24:05;23.00;99.90
37300;DHT22;23184;51.902;12.836;2023-07-09T06:26:30;23.10;99.90
37300;DHT22;23184;51.902;12.836;2023-07-09T06:28:56;23.30;99.90
37300;DHT22;23184;51.902;12.836;2023-07-09T06:31:21;23.40;99.90
37300;DHT22;23184;51.902;12.836;2023-07-09T06:33:47;23.50;99.90
37300;DHT22;23184;51.902;12.836;2023-07-09T06:36:13;23.70;99.90
37300;DHT22;23184;51.902;12.836;2023-07-09T06:38:39;23.80;99.90
37300;DHT22;23184;51.902;12.836;2023-07-09T06:41:04;24.10;99.90
37300;DHT22;23184;51.902;12.836;2023-07-09T06:43:30;24.20;99.90
37300;DHT22;23184;51.902;12.836;2023-07-09T06:45:58;24.40;99.90
37300;DHT22;23184;51.902;12.836;2023-07-09T06:48:25;24.50;99.90
37300;DHT22;23184;51.902;12.836;2023-07-09T06:50:52;24.60;99.90
37300;DHT22;23184;51.902;12.836;2023-07-09T06:53:19;24.80;99.90
37300;DHT22;23184;51.902;12.836;2023-07-09T06:55:45;25.00;99.90
37300;DHT22;23184;51.902;12.836;2023-07-09T06:58:11;25.30;99.90
37300;DHT22;23184;51.902;12.836;2023-07-09T07:00:37;25.60;99.90
37300;DHT22;23184;51.902;12.836;2023-07-09T07:03:03;25.80;99.90
37300;DHT22;23184;51.902;12.836;2023-07-09T07:05:29;26.10;99.90
37300;DHT22;23184;51.902;12.836;2023-07-09T07:07:54;26.20;99.90
37300;DHT22;23184;51.902;12.836;2023-07-09T07:10:20;26.30;99.90
37300;DHT22;23184;51.902;12.836;2023-07-09T07:12:47;26.70;99.90
37300;DHT22;23184;51.902;12.836;2023-07-09T07:15:15;26.90;99.90
37300;DHT22;23184;51.902;12.836;2023-07-09T07:17:41;27.00;99.90
37300;DHT22;23184;51.902;12.836;2023-07-09T07:20:08;27.50;99.90
37300;DHT22;23184;51.902;12.836;2023-07-09T07:22:34;27.90;99.90
37300;DHT22;23184;51.902;12.836;2023-07-09T07:24:59;28.10;98.70
37300;DHT22;23184;51.902;12.836;2023-07-09T07:27:25;28.30;97.00
37300;DHT22;23184;51.902;12.836;2023-07-09T07:29:50;28.60;95.20
37300;DHT22;23184;51.902;12.836;2023-07-09T07:32:16;28.60;93.80
37300;DHT22;23184;51.902;12.836;2023-07-09T07:34:41;28.90;93.40
37300;DHT22;23184;51.902;12.836;2023-07-09T07:37:07;29.30;90.50
37300;DHT22;23184;51.902;12.836;2023-07-09T07:39:32;29.40;88.60
37300;DHT22;23184;51.902;12.836;2023-07-09T07:41:58;29.50;85.90
37300;DHT22;23184;51.902;12.836;2023-07-09T07:44:23;29.70;85.80
37300;DHT22;23184;51.902;12.836;2023-07-09T07:46:49;30.10;82.30
37300;DHT22;23184;51.902;12.836;2023-07-09T07:49:15;30.50;78.50
37300;DHT22;23184;51.902;12.836;2023-07-09T07:51:40;30.90;75.10
37300;DHT22;23184;51.902;12.836;2023-07-09T07:54:07;31.10;74.20
37300;DHT22;23184;51.902;12.836;2023-07-09T07:56:35;31.30;71.40
37300;DHT22;23184;51.902;12.836;2023-07-09T07:59:01;31.50;68.80
37300;DHT22;23184;51.902;12.836;2023-07-09T08:01:26;31.30;68.20
37300;DHT22;23184;51.902;12.836;2023-07-09T08:03:52;31.30;65.70
37300;DHT22;23184;51.902;12.836;2023-07-09T08:06:17;31.30;64.80
37300;DHT22;23184;51.902;12.836;2023-07-09T08:08:43;31.20;66.50
37300;DHT22;23184;51.902;12.836;2023-07-09T08:11:09;31.20;64.70
37300;DHT22;23184;51.902;12.836;2023-07-09T08:13:35;31.20;65.00
37300;DHT22;23184;51.902;12.836;2023-07-09T08:16:01;31.20;63.50
37300;DHT22;23184;51.902;12.836;2023-07-09T08:18:27;31.50;62.80
37300;DHT22;23184;51.902;12.836;2023-07-09T08:20:52;31.40;61.90
37300;DHT22;23184;51.902;12.836;2023-07-09T08:23:18;31.50;61.60
37300;DHT22;23184;51.902;12.836;2023-07-09T08:25:44;31.80;60.90
37300;DHT22;23184;51.902;12.836;2023-07-09T08:28:09;31.60;61.00
37300;DHT22;23184;51.902;12.836;2023-07-09T08:30:36;32.00;58.80
37300;DHT22;23184;51.902;12.836;2023-07-09T08:33:01;32.40;56.70
37300;DHT22;23184;51.902;12.836;2023-07-09T08:35:27;32.70;55.60
37300;DHT22;23184;51.902;12.836;2023-07-09T08:37:52;32.70;54.50
37300;DHT22;23184;51.902;12.836;2023-07-09T08:40:18;32.90;53.50
37300;DHT22;23184;51.902;12.836;2023-07-09T08:42:46;32.80;52.70
37300;DHT22;23184;51.902;12.836;2023-07-09T08:45:34;32.90;51.20
37300;DHT22;23184;51.902;12.836;2023-07-09T08:48:03;32.70;51.80
37300;DHT22;23184;51.902;12.836;2023-07-09T08:53:04;32.60;51.10
37300;DHT22;23184;51.902;12.836;2023-07-09T08:55:31;32.70;50.50
37300;DHT22;23184;51.902;12.836;2023-07-09T08:58:10;32.80;48.00
37300;DHT22;23184;51.902;12.836;2023-07-09T09:00:57;32.80;49.30
37300;DHT22;23184;51.902;12.836;2023-07-09T09:03:39;33.20;49.30
37300;DHT22;23184;51.902;12.836;2023-07-09T09:06:14;33.60;49.70
37300;DHT22;23184;51.902;12.836;2023-07-09T09:16:44;35.00;46.80
37300;DHT22;23184;51.902;12.836;2023-07-09T09:19:34;35.50;46.80
37300;DHT22;23184;51.902;12.836;2023-07-09T09:22:11;36.20;45.50
37300;DHT22;23184;51.902;12.836;2023-07-09T09:24:46;36.80;43.90
37300;DHT22;23184;51.902;12.836;2023-07-09T09:27:15;36.20;44.70
37300;DHT22;23184;51.902;12.836;2023-07-09T09:29:40;36.00;45.80
37300;DHT22;23184;51.902;12.836;2023-07-09T09:32:29;36.00;44.30
37300;DHT22;23184;51.902;12.836;2023-07-09T09:34:56;36.20;43.90
37300;DHT22;23184;51.902;12.836;2023-07-09T09:37:27;35.60;43.10
37300;DHT22;23184;51.902;12.836;2023-07-09T09:39:54;35.70;44.90
37300;DHT22;23184;51.902;12.836;2023-07-09T09:42:20;35.80;44.90
37300;DHT22;23184;51.902;12.836;2023-07-09T09:44:46;35.70;44.60
37300;DHT22;23184;51.902;12.836;2023-07-09T09:47:11;35.40;45.20
37300;DHT22;23184;51.902;12.836;2023-07-09T09:49:41;35.90;43.60
37300;DHT22;23184;51.902;12.836;2023-07-09T09:52:15;36.10;43.50
37300;DHT22;23184;51.902;12.836;2023-07-09T09:54:47;36.30;43.60
37300;DHT22;23184;51.902;12.836;2023-07-09T09:57:23;36.40;42.80
37300;DHT22;23184;51.902;12.836;2023-07-09T09:59:49;36.70;42.90
37300;DHT22;23184;51.902;12.836;2023-07-09T10:02:23;36.90;41.80
37300;DHT22;23184;51.902;12.836;2023-07-09T10:04:50;37.30;41.00
37300;DHT22;23184;51.902;12.836;2023-07-09T10:07:30;37.40;41.20
37300;DHT22;23184;51.902;12.836;2023-07-09T10:09:58;37.60;41.30
37300;DHT22;23184;51.902;12.836;2023-07-09T10:18:07;39.80;38.80
37300;DHT22;23184;51.902;12.836;2023-07-09T10:20:42;39.50;38.40
37300;DHT22;23184;51.902;12.836;2023-07-09T10:23:22;39.30;39.00
37300;DHT22;23184;51.902;12.836;2023-07-09T10:25:59;39.90;38.00
37300;DHT22;23184;51.902;12.836;2023-07-09T10:31:32;38.80;37.30
37300;DHT22;23184;51.902;12.836;2023-07-09T10:37:00;39.10;37.90
37300;DHT22;23184;51.902;12.836;2023-07-09T10:39:34;39.00;37.60
37300;DHT22;23184;51.902;12.836;2023-07-09T10:42:00;39.60;37.40
37300;DHT22;23184;51.902;12.836;2023-07-09T10:47:09;41.10;35.70
37300;DHT22;23184;51.902;12.836;2023-07-09T10:49:41;41.90;35.60
37300;DHT22;23184;51.902;12.836;2023-07-09T10:52:18;42.50;34.30
37300;DHT22;23184;51.902;12.836;2023-07-09T10:55:07;42.70;34.50
37300;DHT22;23184;51.902;12.836;2023-07-09T10:57:57;42.90;33.40
37300;DHT22;23184;51.902;12.836;2023-07-09T11:00:34;43.10;33.10
37300;DHT22;23184;51.902;12.836;2023-07-09T11:03:10;41.80;33.90
37300;DHT22;23184;51.902;12.836;2023-07-09T11:05:39;41.60;35.00
37300;DHT22;23184;51.902;12.836;2023-07-09T11:08:17;41.80;34.50
37300;DHT22;23184;51.902;12.836;2023-07-09T11:10:52;42.10;34.60
37300;DHT22;23184;51.902;12.836;2023-07-09T11:13:24;40.80;34.60
37300;DHT22;23184;51.902;12.836;2023-07-09T11:15:54;39.30;36.20
37300;DHT22;23184;51.902;12.836;2023-07-09T11:18:24;39.80;36.20
37300;DHT22;23184;51.902;12.836;2023-07-09T11:21:17;39.80;35.60
37300;DHT22;23184;51.902;12.836;2023-07-09T11:23:52;40.10;35.40
37300;DHT22;23184;51.902;12.836;2023-07-09T11:26:34;39.40;35.70
37300;DHT22;23184;51.902;12.836;2023-07-09T11:31:40;38.30;38.30
37300;DHT22;23184;51.902;12.836;2023-07-09T11:36:59;38.60;38.70
37300;DHT22;23184;51.902;12.836;2023-07-09T11:39:51;38.00;37.70
37300;DHT22;23184;51.902;12.836;2023-07-09T11:42:35;37.90;37.40
37300;DHT22;23184;51.902;12.836;2023-07-09T11:45:13;39.60;38.00
37300;DHT22;23184;51.902;12.836;2023-07-09T11:47:47;41.00;36.80
37300;DHT22;23184;51.902;12.836;2023-07-09T11:53:22;43.40;34.90
37300;DHT22;23184;51.902;12.836;2023-07-09T11:55:51;43.70;33.40
37300;DHT22;23184;51.902;12.836;2023-07-09T11:58:18;40.80;35.40
37300;DHT22;23184;51.902;12.836;2023-07-09T12:00:48;40.30;34.70
37300;DHT22;23184;51.902;12.836;2023-07-09T12:05:52;39.40;36.00
37300;DHT22;23184;51.902;12.836;2023-07-09T12:08:29;39.50;35.30
37300;DHT22;23184;51.902;12.836;2023-07-09T12:10:58;40.30;35.90
37300;DHT22;23184;51.902;12.836;2023-07-09T12:13:23;41.00;35.10
37300;DHT22;23184;51.902;12.836;2023-07-09T12:15:49;41.00;34.40
37300;DHT22;23184;51.902;12.836;2023-07-09T12:18:15;41.30;34.40
37300;DHT22;23184;51.902;12.836;2023-07-09T12:20:45;42.00;33.80
37300;DHT22;23184;51.902;12.836;2023-07-09T12:23:30;40.60;34.70
37300;DHT22;23184;51.902;12.836;2023-07-09T12:25:59;38.60;36.40
37300;DHT22;23184;51.902;12.836;2023-07-09T12:28:26;37.10;38.10
37300;DHT22;23184;51.902;12.836;2023-07-09T12:30:52;37.70;38.40
37300;DHT22;23184;51.902;12.836;2023-07-09T12:33:23;38.00;37.30
37300;DHT22;23184;51.902;12.836;2023-07-09T12:36:01;37.90;37.40
37300;DHT22;23184;51.902;12.836;2023-07-09T12:38:41;38.30;37.30
37300;DHT22;23184;51.902;12.836;2023-07-09T12:41:18;37.90;38.20
37300;DHT22;23184;51.902;12.836;2023-07-09T12:43:44;38.90;37.70
37300;DHT22;23184;51.902;12.836;2023-07-09T12:46:10;38.30;37.30
37300;DHT22;23184;51.902;12.836;2023-07-09T12:48:36;39.80;36.60
37300;DHT22;23184;51.902;12.836;2023-07-09T12:51:07;40.90;35.20
37300;DHT22;23184;51.902;12.836;2023-07-09T12:53:33;42.10;35.70
37300;DHT22;23184;51.902;12.836;2023-07-09T12:56:00;42.50;33.30
37300;DHT22;23184;51.902;12.836;2023-07-09T12:58:30;42.40;33.80
37300;DHT22;23184;51.902;12.836;2023-07-09T13:00:57;42.40;32.80
37300;DHT22;23184;51.902;12.836;2023-07-09T13:03:28;43.10;33.00
37300;DHT22;23184;51.902;12.836;2023-07-09T13:05:57;41.70;33.60
37300;DHT22;23184;51.902;12.836;2023-07-09T13:08:25;41.80;33.60
37300;DHT22;23184;51.902;12.836;2023-07-09T13:10:51;42.10;32.90
37300;DHT22;23184;51.902;12.836;2023-07-09T13:13:19;42.30;32.70
37300;DHT22;23184;51.902;12.836;2023-07-09T13:15:52;42.40;32.70
37300;DHT22;23184;51.902;12.836;2023-07-09T13:18:22;43.20;31.90
37300;DHT22;23184;51.902;12.836;2023-07-09T13:20:48;43.30;33.30
37300;DHT22;23184;51.902;12.836;2023-07-09T13:25:50;45.00;31.30
37300;DHT22;23184;51.902;12.836;2023-07-09T13:28:18;44.30;32.10
37300;DHT22;23184;51.902;12.836;2023-07-09T13:30:45;44.80;32.10
37300;DHT22;23184;51.902;12.836;2023-07-09T13:33:11;43.30;31.00
37300;DHT22;23184;51.902;12.836;2023-07-09T13:35:37;39.70;33.00
37300;DHT22;23184;51.902;12.836;2023-07-09T13:38:03;39.00;37.10
37300;DHT22;23184;51.902;12.836;2023-07-09T13:40:36;38.30;36.40
37300;DHT22;23184;51.902;12.836;2023-07-09T13:43:01;36.80;38.30
37300;DHT22;23184;51.902;12.836;2023-07-09T13:45:28;36.60;38.40
37300;DHT22;23184;51.902;12.836;2023-07-09T13:47:54;37.90;37.60
37300;DHT22;23184;51.902;12.836;2023-07-09T13:50:20;38.50;37.10
37300;DHT22;23184;51.902;12.836;2023-07-09T13:52:46;39.70;36.30
37300;DHT22;23184;51.902;12.836;2023-07-09T13:55:18;39.70;35.70
37300;DHT22;23184;51.902;12.836;2023-07-09T13:57:44;39.00;36.50
37300;DHT22;23184;51.902;12.836;2023-07-09T14:00:11;39.60;35.30
37300;DHT22;23184;51.902;12.836;2023-07-09T14:02:37;40.60;35.00
37300;DHT22;23184;51.902;12.836;2023-07-09T14:05:05;40.00;35.70
37300;DHT22;23184;51.902;12.836;2023-07-09T14:07:34;38.20;37.00
37300;DHT22;23184;51.902;12.836;2023-07-09T14:10:02;37.70;38.60
37300;DHT22;23184;51.902;12.836;2023-07-09T14:12:28;38.30;38.30
37300;DHT22;23184;51.902;12.836;2023-07-09T14:14:58;38.80;38.90
37300;DHT22;23184;51.902;12.836;2023-07-09T14:17:24;37.90;37.10
37300;DHT22;23184;51.902;12.836;2023-07-09T14:19:53;39.40;36.50
37300;DHT22;23184;51.902;12.836;2023-07-09T14:22:32;40.20;35.50
37300;DHT22;23184;51.902;12.836;2023-07-09T14:24:58;40.60;35.00
37300;DHT22;23184;51.902;12.836;2023-07-09T14:27:24;40.70;34.70
37300;DHT22;23184;51.902;12.836;2023-07-09T14:29:50;40.40;34.40
37300;DHT22;23184;51.902;12.836;2023-07-09T14:32:36;39.90;35.00
37300;DHT22;23184;51.902;12.836;2023-07-09T14:35:10;40.10;35.10
37300;DHT22;23184;51.902;12.836;2023-07-09T14:37:35;40.20;36.60
37300;DHT22;23184;51.902;12.836;2023-07-09T14:40:01;40.10;36.90
37300;DHT22;23184;51.902;12.836;2023-07-09T14:42:27;40.30;35.30
37300;DHT22;23184;51.902;12.836;2023-07-09T14:44:52;41.00;36.00
37300;DHT22;23184;51.902;12.836;2023-07-09T14:47:20;40.90;36.40
37300;DHT22;23184;51.902;12.836;2023-07-09T14:49:46;40.90;36.70
37300;DHT22;23184;51.902;12.836;2023-07-09T14:52:14;40.90;36.00
37300;DHT22;23184;51.902;12.836;2023-07-09T14:54:41;40.00;36.20
37300;DHT22;23184;51.902;12.836;2023-07-09T14:57:32;39.80;35.60
37300;DHT22;23184;51.902;12.836;2023-07-09T14:59:59;39.10;37.80
37300;DHT22;23184;51.902;12.836;2023-07-09T15:02:32;39.60;37.40
37300;DHT22;23184;51.902;12.836;2023-07-09T15:05:01;39.80;36.90
37300;DHT22;23184;51.902;12.836;2023-07-09T15:07:26;40.10;36.00
37300;DHT22;23184;51.902;12.836;2023-07-09T15:10:04;40.30;36.30
37300;DHT22;23184;51.902;12.836;2023-07-09T15:12:35;40.40;36.00
37300;DHT22;23184;51.902;12.836;2023-07-09T15:15:23;40.40;35.90
37300;DHT22;23184;51.902;12.836;2023-07-09T15:17:50;40.20;35.30
37300;DHT22;23184;51.902;12.836;2023-07-09T15:20:18;40.10;35.60
37300;DHT22;23184;51.902;12.836;2023-07-09T15:22:45;39.90;38.20
37300;DHT22;23184;51.902;12.836;2023-07-09T15:25:20;39.50;36.70
37300;DHT22;23184;51.902;12.836;2023-07-09T15:27:46;39.10;38.20
37300;DHT22;23184;51.902;12.836;2023-07-09T15:32:43;38.50;37.20
37300;DHT22;23184;51.902;12.836;2023-07-09T15:35:09;38.10;38.50
37300;DHT22;23184;51.902;12.836;2023-07-09T15:37:35;37.90;38.90
37300;DHT22;23184;51.902;12.836;2023-07-09T15:40:00;37.70;39.40
37300;DHT22;23184;51.902;12.836;2023-07-09T15:42:26;37.50;39.00
37300;DHT22;23184;51.902;12.836;2023-07-09T15:44:51;37.40;39.50
37300;DHT22;23184;51.902;12.836;2023-07-09T15:47:19;37.20;39.10
37300;DHT22;23184;51.902;12.836;2023-07-09T15:49:46;37.10;39.30
37300;DHT22;23184;51.902;12.836;2023-07-09T15:52:11;36.80;41.10
37300;DHT22;23184;51.902;12.836;2023-07-09T15:54:37;36.50;39.60
37300;DHT22;23184;51.902;12.836;2023-07-09T15:57:03;36.40;41.20
37300;DHT22;23184;51.902;12.836;2023-07-09T15:59:32;35.80;39.50
37300;DHT22;23184;51.902;12.836;2023-07-09T16:02:00;35.30;40.40
37300;DHT22;23184;51.902;12.836;2023-07-09T16:04:26;35.30;42.40
37300;DHT22;23184;51.902;12.836;2023-07-09T16:06:52;35.20;42.30